sensor_id;sensor_type;location;lat;lon;timestamp;P1;durP1;ratioP1;P2;durP2;ratioP2
53483;SDS011;75581;50.088;19.966;2024-02-23T00:00:16;1.90;;;1.20;;
53483;SDS011;75581;50.088;19.966;2024-02-23T00:03:06;2.00;;;1.10;;
53483;SDS011;75581;50.088;19.966;2024-02-23T00:05:36;2.70;;;1.60;;
53483;SDS011;75581;50.088;19.966;2024-02-23T00:08:06;3.50;;;1.40;;
53483;SDS011;75581;50.088;19.966;2024-02-23T00:10:37;2.30;;;1.50;;
53483;SDS011;75581;50.088;19.966;2024-02-23T00:13:06;2.20;;;1.50;;
53483;SDS011;75581;50.088;19.966;2024-02-23T00:15:35;1.90;;;1.40;;
53483;SDS011;75581;50.088;19.966;2024-02-23T00:18:04;4.00;;;1.30;;
53483;SDS011;75581;50.088;19.966;2024-02-23T00:20:34;1.50;;;1.30;;
53483;SDS011;75581;50.088;19.966;2024-02-23T00:23:03;2.10;;;1.20;;
53483;SDS011;75581;50.088;19.966;2024-02-23T00:25:32;2.50;;;1.50;;
53483;SDS011;75581;50.088;19.966;2024-02-23T00:28:01;2.40;;;1.10;;
53483;SDS011;75581;50.088;19.966;2024-02-23T00:30:30;1.80;;;1.30;;
53483;SDS011;75581;50.088;19.966;2024-02-23T00:32:59;1.80;;;1.10;;
53483;SDS011;75581;50.088;19.966;2024-02-23T00:35:28;2.50;;;1.20;;
53483;SDS011;75581;50.088;19.966;2024-02-23T00:37:57;1.50;;;1.30;;
53483;SDS011;75581;50.088;19.966;2024-02-23T00:40:26;1.70;;;1.40;;
53483;SDS011;75581;50.088;19.966;2024-02-23T00:42:55;2.80;;;1.30;;
53483;SDS011;75581;50.088;19.966;2024-02-23T00:45:24;2.80;;;1.50;;
53483;SDS011;75581;50.088;19.966;2024-02-23T00:47:54;2.80;;;1.50;;
53483;SDS011;75581;50.088;19.966;2024-02-23T00:50:23;2.10;;;1.20;;
53483;SDS011;75581;50.088;19.966;2024-02-23T00:52:54;1.80;;;1.30;;
53483;SDS011;75581;50.088;19.966;2024-02-23T00:55:23;2.10;;;1.20;;
53483;SDS011;75581;50.088;19.966;2024-02-23T00:57:53;2.70;;;1.10;;
53483;SDS011;75581;50.088;19.966;2024-02-23T01:00:22;2.40;;;1.30;;
53483;SDS011;75581;50.088;19.966;2024-02-23T01:02:51;2.40;;;1.10;;
53483;SDS011;75581;50.088;19.966;2024-02-23T01:05:20;2.10;;;1.40;;
53483;SDS011;75581;50.088;19.966;2024-02-23T01:07:50;2.00;;;1.40;;
53483;SDS011;75581;50.088;19.966;2024-02-23T01:10:19;2.20;;;1.60;;
53483;SDS011;75581;50.088;19.966;2024-02-23T01:12:47;2.70;;;1.20;;
53483;SDS011;75581;50.088;19.966;2024-02-23T01:15:17;3.50;;;1.70;;
53483;SDS011;75581;50.088;19.966;2024-02-23T01:17:46;2.40;;;1.30;;
53483;SDS011;75581;50.088;19.966;2024-02-23T01:20:15;2.00;;;1.50;;
53483;SDS011;75581;50.088;19.966;2024-02-23T01:22:44;2.50;;;1.20;;
53483;SDS011;75581;50.088;19.966;2024-02-23T01:25:13;2.50;;;1.40;;
53483;SDS011;75581;50.088;19.966;2024-02-23T01:27:44;2.30;;;1.40;;
53483;SDS011;75581;50.088;19.966;2024-02-23T01:30:13;2.20;;;1.40;;
53483;SDS011;75581;50.088;19.966;2024-02-23T01:32:42;1.30;;;1.10;;
53483;SDS011;75581;50.088;19.966;2024-02-23T01:35:12;3.90;;;1.30;;
53483;SDS011;75581;50.088;19.966;2024-02-23T01:37:40;2.70;;;1.70;;
53483;SDS011;75581;50.088;19.966;2024-02-23T01:40:10;3.60;;;1.40;;
53483;SDS011;75581;50.088;19.966;2024-02-23T01:42:39;4.00;;;2.00;;
53483;SDS011;75581;50.088;19.966;2024-02-23T01:45:08;2.30;;;1.60;;
53483;SDS011;75581;50.088;19.966;2024-02-23T01:47:37;2.60;;;1.60;;
53483;SDS011;75581;50.088;19.966;2024-02-23T01:50:06;2.50;;;1.60;;
53483;SDS011;75581;50.088;19.966;2024-02-23T01:52:37;3.60;;;1.40;;
53483;SDS011;75581;50.088;19.966;2024-02-23T01:55:06;2.60;;;1.40;;
53483;SDS011;75581;50.088;19.966;2024-02-23T01:57:35;2.00;;;1.50;;
53483;SDS011;75581;50.088;19.966;2024-02-23T02:00:17;2.80;;;1.40;;
53483;SDS011;75581;50.088;19.966;2024-02-23T02:02:53;1.80;;;1.40;;
53483;SDS011;75581;50.088;19.966;2024-02-23T02:05:23;2.50;;;1.40;;
53483;SDS011;75581;50.088;19.966;2024-02-23T02:07:53;2.20;;;1.90;;
53483;SDS011;75581;50.088;19.966;2024-02-23T02:10:28;2.60;;;1.70;;
53483;SDS011;75581;50.088;19.966;2024-02-23T02:13:01;3.30;;;1.70;;
53483;SDS011;75581;50.088;19.966;2024-02-23T02:15:32;2.00;;;1.50;;
53483;SDS011;75581;50.088;19.966;2024-02-23T02:18:01;1.70;;;1.50;;
53483;SDS011;75581;50.088;19.966;2024-02-23T02:20:32;3.00;;;1.50;;
53483;SDS011;75581;50.088;19.966;2024-02-23T02:23:02;2.30;;;1.60;;
53483;SDS011;75581;50.088;19.966;2024-02-23T02:25:32;1.80;;;1.60;;
53483;SDS011;75581;50.088;19.966;2024-02-23T02:28:21;3.30;;;1.90;;
53483;SDS011;75581;50.088;19.966;2024-02-23T02:30:51;1.80;;;1.60;;
53483;SDS011;75581;50.088;19.966;2024-02-23T02:33:21;2.20;;;1.80;;
53483;SDS011;75581;50.088;19.966;2024-02-23T02:35:51;2.30;;;1.60;;
53483;SDS011;75581;50.088;19.966;2024-02-23T02:38:20;2.50;;;1.60;;
53483;SDS011;75581;50.088;19.966;2024-02-23T02:40:49;2.20;;;1.60;;
53483;SDS011;75581;50.088;19.966;2024-02-23T02:43:18;2.80;;;1.70;;
53483;SDS011;75581;50.088;19.966;2024-02-23T02:45:47;2.20;;;1.70;;
53483;SDS011;75581;50.088;19.966;2024-02-23T02:48:17;3.90;;;1.70;;
53483;SDS011;75581;50.088;19.966;2024-02-23T02:50:46;2.20;;;1.80;;
53483;SDS011;75581;50.088;19.966;2024-02-23T02:53:18;2.60;;;1.90;;
53483;SDS011;75581;50.088;19.966;2024-02-23T02:55:47;3.50;;;2.00;;
53483;SDS011;75581;50.088;19.966;2024-02-23T02:58:17;3.20;;;2.00;;
53483;SDS011;75581;50.088;19.966;2024-02-23T03:00:47;2.50;;;1.80;;
53483;SDS011;75581;50.088;19.966;2024-02-23T03:03:16;4.20;;;2.30;;
53483;SDS011;75581;50.088;19.966;2024-02-23T03:05:45;3.00;;;2.10;;
53483;SDS011;75581;50.088;19.966;2024-02-23T03:08:14;5.80;;;2.20;;
53483;SDS011;75581;50.088;19.966;2024-02-23T03:10:43;2.70;;;2.10;;
53483;SDS011;75581;50.088;19.966;2024-02-23T03:13:13;2.50;;;1.70;;
53483;SDS011;75581;50.088;19.966;2024-02-23T03:15:43;4.00;;;1.80;;
53483;SDS011;75581;50.088;19.966;2024-02-23T03:18:12;4.20;;;3.00;;
53483;SDS011;75581;50.088;19.966;2024-02-23T03:20:44;3.50;;;2.60;;
53483;SDS011;75581;50.088;19.966;2024-02-23T03:23:13;2.70;;;1.90;;
53483;SDS011;75581;50.088;19.966;2024-02-23T03:25:42;3.30;;;2.40;;
53483;SDS011;75581;50.088;19.966;2024-02-23T03:28:11;4.00;;;2.00;;
53483;SDS011;75581;50.088;19.966;2024-02-23T03:30:40;5.30;;;2.00;;
53483;SDS011;75581;50.088;19.966;2024-02-23T03:33:09;3.30;;;1.90;;
53483;SDS011;75581;50.088;19.966;2024-02-23T03:35:38;4.60;;;1.90;;
53483;SDS011;75581;50.088;19.966;2024-02-23T03:38:07;3.30;;;2.10;;
53483;SDS011;75581;50.088;19.966;2024-02-23T03:40:36;2.90;;;2.30;;
53483;SDS011;75581;50.088;19.966;2024-02-23T03:43:05;2.50;;;1.90;;
53483;SDS011;75581;50.088;19.966;2024-02-23T03:45:34;4.60;;;2.30;;
53483;SDS011;75581;50.088;19.966;2024-02-23T03:48:03;5.50;;;2.50;;
53483;SDS011;75581;50.088;19.966;2024-02-23T03:50:32;3.90;;;2.10;;
53483;SDS011;75581;50.088;19.966;2024-02-23T03:53:02;4.00;;;2.00;;
53483;SDS011;75581;50.088;19.966;2024-02-23T03:55:34;2.80;;;2.10;;
53483;SDS011;75581;50.088;19.966;2024-02-23T03:58:03;2.40;;;2.00;;
53483;SDS011;75581;50.088;19.966;2024-02-23T04:00:32;3.40;;;2.40;;
53483;SDS011;75581;50.088;19.966;2024-02-23T04:03:01;3.20;;;2.00;;
53483;SDS011;75581;50.088;19.966;2024-02-23T04:05:30;4.60;;;2.40;;
53483;SDS011;75581;50.088;19.966;2024-02-23T04:08:00;2.90;;;2.10;;
53483;SDS011;75581;50.088;19.966;2024-02-23T04:10:30;4.20;;;2.30;;
53483;SDS011;75581;50.088;19.966;2024-02-23T04:13:00;3.20;;;2.40;;
53483;SDS011;75581;50.088;19.966;2024-02-23T04:15:29;4.00;;;2.20;;
53483;SDS011;75581;50.088;19.966;2024-02-23T04:17:58;3.20;;;2.40;;
53483;SDS011;75581;50.088;19.966;2024-02-23T04:20:28;3.60;;;2.30;;
53483;SDS011;75581;50.088;19.966;2024-02-23T04:22:56;4.30;;;2.50;;
53483;SDS011;75581;50.088;19.966;2024-02-23T04:25:28;3.80;;;2.50;;
53483;SDS011;75581;50.088;19.966;2024-02-23T04:27:57;3.70;;;2.40;;
53483;SDS011;75581;50.088;19.966;2024-02-23T04:30:26;3.10;;;2.40;;
53483;SDS011;75581;50.088;19.966;2024-02-23T04:32:55;5.20;;;2.30;;
53483;SDS011;75581;50.088;19.966;2024-02-23T04:35:24;4.30;;;2.50;;
53483;SDS011;75581;50.088;19.966;2024-02-23T04:37:53;2.80;;;2.20;;
53483;SDS011;75581;50.088;19.966;2024-02-23T04:40:22;3.90;;;2.30;;
53483;SDS011;75581;50.088;19.966;2024-02-23T04:42:51;3.20;;;2.50;;
53483;SDS011;75581;50.088;19.966;2024-02-23T04:45:20;3.90;;;2.30;;
53483;SDS011;75581;50.088;19.966;2024-02-23T04:47:49;4.80;;;2.90;;
53483;SDS011;75581;50.088;19.966;2024-02-23T04:50:18;4.60;;;2.60;;
53483;SDS011;75581;50.088;19.966;2024-02-23T04:52:47;4.90;;;2.70;;
53483;SDS011;75581;50.088;19.966;2024-02-23T04:55:16;3.00;;;2.60;;
53483;SDS011;75581;50.088;19.966;2024-02-23T04:57:45;4.30;;;2.70;;
53483;SDS011;75581;50.088;19.966;2024-02-23T05:00:14;4.70;;;2.50;;
53483;SDS011;75581;50.088;19.966;2024-02-23T05:02:45;4.60;;;2.60;;
53483;SDS011;75581;50.088;19.966;2024-02-23T05:05:14;3.50;;;2.20;;
53483;SDS011;75581;50.088;19.966;2024-02-23T05:07:44;4.90;;;3.30;;
53483;SDS011;75581;50.088;19.966;2024-02-23T05:10:13;3.90;;;3.10;;
53483;SDS011;75581;50.088;19.966;2024-02-23T05:12:42;3.20;;;2.20;;
53483;SDS011;75581;50.088;19.966;2024-02-23T05:15:11;5.80;;;3.10;;
53483;SDS011;75581;50.088;19.966;2024-02-23T05:17:40;3.20;;;2.80;;
53483;SDS011;75581;50.088;19.966;2024-02-23T05:20:09;4.80;;;2.60;;
53483;SDS011;75581;50.088;19.966;2024-02-23T05:22:39;5.00;;;2.70;;
53483;SDS011;75581;50.088;19.966;2024-02-23T05:25:08;4.50;;;2.90;;
53483;SDS011;75581;50.088;19.966;2024-02-23T05:27:38;3.60;;;2.60;;
53483;SDS011;75581;50.088;19.966;2024-02-23T05:30:07;4.20;;;3.00;;
53483;SDS011;75581;50.088;19.966;2024-02-23T05:32:36;4.10;;;2.80;;
53483;SDS011;75581;50.088;19.966;2024-02-23T05:35:05;4.10;;;2.90;;
53483;SDS011;75581;50.088;19.966;2024-02-23T05:37:35;4.90;;;3.40;;
53483;SDS011;75581;50.088;19.966;2024-02-23T05:40:05;4.80;;;2.90;;
53483;SDS011;75581;50.088;19.966;2024-02-23T05:42:39;4.70;;;3.20;;
53483;SDS011;75581;50.088;19.966;2024-02-23T05:45:08;6.20;;;3.60;;
53483;SDS011;75581;50.088;19.966;2024-02-23T05:47:38;4.00;;;3.30;;
53483;SDS011;75581;50.088;19.966;2024-02-23T05:50:11;3.70;;;2.90;;
53483;SDS011;75581;50.088;19.966;2024-02-23T05:52:40;3.50;;;2.90;;
53483;SDS011;75581;50.088;19.966;2024-02-23T05:55:09;5.40;;;3.20;;
53483;SDS011;75581;50.088;19.966;2024-02-23T05:57:39;5.80;;;3.20;;
53483;SDS011;75581;50.088;19.966;2024-02-23T06:00:09;5.90;;;3.40;;
53483;SDS011;75581;50.088;19.966;2024-02-23T06:02:42;4.30;;;3.10;;
53483;SDS011;75581;50.088;19.966;2024-02-23T06:05:11;6.50;;;4.00;;
53483;SDS011;75581;50.088;19.966;2024-02-23T06:07:41;9.50;;;4.20;;
53483;SDS011;75581;50.088;19.966;2024-02-23T06:10:10;8.80;;;4.80;;
53483;SDS011;75581;50.088;19.966;2024-02-23T06:12:39;7.10;;;3.90;;
53483;SDS011;75581;50.088;19.966;2024-02-23T06:15:08;5.30;;;3.60;;
53483;SDS011;75581;50.088;19.966;2024-02-23T06:17:38;8.90;;;3.90;;
53483;SDS011;75581;50.088;19.966;2024-02-23T06:20:09;5.90;;;3.50;;
53483;SDS011;75581;50.088;19.966;2024-02-23T06:22:39;8.00;;;4.00;;
53483;SDS011;75581;50.088;19.966;2024-02-23T06:25:08;5.70;;;3.70;;
53483;SDS011;75581;50.088;19.966;2024-02-23T06:27:37;6.20;;;4.50;;
53483;SDS011;75581;50.088;19.966;2024-02-23T06:30:06;7.10;;;4.10;;
53483;SDS011;75581;50.088;19.966;2024-02-23T06:32:36;7.00;;;4.30;;
53483;SDS011;75581;50.088;19.966;2024-02-23T06:35:05;6.80;;;4.20;;
53483;SDS011;75581;50.088;19.966;2024-02-23T06:37:34;8.20;;;4.40;;
53483;SDS011;75581;50.088;19.966;2024-02-23T06:40:03;8.00;;;4.70;;
53483;SDS011;75581;50.088;19.966;2024-02-23T06:42:33;9.20;;;4.00;;
53483;SDS011;75581;50.088;19.966;2024-02-23T06:45:02;6.70;;;4.70;;
53483;SDS011;75581;50.088;19.966;2024-02-23T06:47:32;5.10;;;3.80;;
53483;SDS011;75581;50.088;19.966;2024-02-23T06:50:01;7.90;;;5.40;;
53483;SDS011;75581;50.088;19.966;2024-02-23T06:52:32;6.80;;;5.10;;
53483;SDS011;75581;50.088;19.966;2024-02-23T06:55:01;6.80;;;4.40;;
53483;SDS011;75581;50.088;19.966;2024-02-23T06:57:30;6.90;;;4.80;;
53483;SDS011;75581;50.088;19.966;2024-02-23T07:00:00;7.40;;;4.60;;
53483;SDS011;75581;50.088;19.966;2024-02-23T07:02:29;7.80;;;4.70;;
53483;SDS011;75581;50.088;19.966;2024-02-23T07:05:00;5.40;;;4.40;;
53483;SDS011;75581;50.088;19.966;2024-02-23T07:07:32;5.60;;;4.90;;
53483;SDS011;75581;50.088;19.966;2024-02-23T07:10:01;9.40;;;4.80;;
53483;SDS011;75581;50.088;19.966;2024-02-23T07:12:30;7.40;;;5.00;;
53483;SDS011;75581;50.088;19.966;2024-02-23T07:15:00;7.40;;;4.90;;
53483;SDS011;75581;50.088;19.966;2024-02-23T07:17:29;7.40;;;4.90;;
53483;SDS011;75581;50.088;19.966;2024-02-23T07:19:58;7.40;;;5.10;;
53483;SDS011;75581;50.088;19.966;2024-02-23T07:22:34;6.90;;;4.40;;
53483;SDS011;75581;50.088;19.966;2024-02-23T07:25:05;5.90;;;4.90;;
53483;SDS011;75581;50.088;19.966;2024-02-23T07:27:35;6.60;;;5.00;;
53483;SDS011;75581;50.088;19.966;2024-02-23T07:30:04;8.70;;;5.20;;
53483;SDS011;75581;50.088;19.966;2024-02-23T07:32:33;7.40;;;5.00;;
53483;SDS011;75581;50.088;19.966;2024-02-23T07:35:04;7.00;;;5.50;;
53483;SDS011;75581;50.088;19.966;2024-02-23T07:37:33;9.10;;;5.70;;
53483;SDS011;75581;50.088;19.966;2024-02-23T07:40:02;8.10;;;5.10;;
53483;SDS011;75581;50.088;19.966;2024-02-23T07:42:32;8.90;;;6.20;;
53483;SDS011;75581;50.088;19.966;2024-02-23T07:45:04;14.60;;;7.50;;
53483;SDS011;75581;50.088;19.966;2024-02-23T07:47:34;15.80;;;8.00;;
53483;SDS011;75581;50.088;19.966;2024-02-23T07:50:03;16.80;;;7.30;;
53483;SDS011;75581;50.088;19.966;2024-02-23T07:52:33;11.00;;;6.80;;
53483;SDS011;75581;50.088;19.966;2024-02-23T07:55:02;10.40;;;6.80;;
53483;SDS011;75581;50.088;19.966;2024-02-23T07:57:33;12.90;;;7.30;;
53483;SDS011;75581;50.088;19.966;2024-02-23T08:00:03;11.60;;;7.90;;
53483;SDS011;75581;50.088;19.966;2024-02-23T08:02:38;12.60;;;8.00;;
53483;SDS011;75581;50.088;19.966;2024-02-23T08:05:08;11.60;;;7.40;;
53483;SDS011;75581;50.088;19.966;2024-02-23T08:07:38;13.30;;;7.60;;
53483;SDS011;75581;50.088;19.966;2024-02-23T08:10:07;12.10;;;7.80;;
53483;SDS011;75581;50.088;19.966;2024-02-23T08:12:37;9.90;;;7.20;;
53483;SDS011;75581;50.088;19.966;2024-02-23T08:15:10;9.50;;;6.70;;
53483;SDS011;75581;50.088;19.966;2024-02-23T08:17:39;12.40;;;7.10;;
53483;SDS011;75581;50.088;19.966;2024-02-23T08:20:08;9.50;;;6.30;;
53483;SDS011;75581;50.088;19.966;2024-02-23T08:22:39;7.10;;;5.70;;
53483;SDS011;75581;50.088;19.966;2024-02-23T08:25:08;8.00;;;4.50;;
53483;SDS011;75581;50.088;19.966;2024-02-23T08:27:42;6.20;;;3.60;;
53483;SDS011;75581;50.088;19.966;2024-02-23T08:30:13;4.50;;;3.00;;
53483;SDS011;75581;50.088;19.966;2024-02-23T08:32:42;7.00;;;3.00;;
53483;SDS011;75581;50.088;19.966;2024-02-23T08:35:12;4.50;;;3.10;;
53483;SDS011;75581;50.088;19.966;2024-02-23T08:37:42;5.50;;;2.90;;
53483;SDS011;75581;50.088;19.966;2024-02-23T08:40:11;4.70;;;3.40;;
53483;SDS011;75581;50.088;19.966;2024-02-23T08:42:41;5.60;;;2.90;;
53483;SDS011;75581;50.088;19.966;2024-02-23T08:45:10;5.70;;;2.50;;
53483;SDS011;75581;50.088;19.966;2024-02-23T08:47:41;5.50;;;3.30;;
53483;SDS011;75581;50.088;19.966;2024-02-23T08:50:10;6.10;;;2.90;;
53483;SDS011;75581;50.088;19.966;2024-02-23T08:52:39;4.30;;;2.60;;
53483;SDS011;75581;50.088;19.966;2024-02-23T08:55:08;5.20;;;2.70;;
53483;SDS011;75581;50.088;19.966;2024-02-23T08:57:37;5.40;;;3.10;;
53483;SDS011;75581;50.088;19.966;2024-02-23T09:00:06;5.10;;;2.90;;
53483;SDS011;75581;50.088;19.966;2024-02-23T09:02:36;4.50;;;3.00;;
53483;SDS011;75581;50.088;19.966;2024-02-23T09:05:06;5.20;;;3.10;;
53483;SDS011;75581;50.088;19.966;2024-02-23T09:07:35;5.60;;;2.90;;
53483;SDS011;75581;50.088;19.966;2024-02-23T09:10:05;4.50;;;3.10;;
53483;SDS011;75581;50.088;19.966;2024-02-23T09:12:34;4.00;;;2.80;;
53483;SDS011;75581;50.088;19.966;2024-02-23T09:15:04;9.10;;;3.50;;
53483;SDS011;75581;50.088;19.966;2024-02-23T09:17:33;6.70;;;3.40;;
53483;SDS011;75581;50.088;19.966;2024-02-23T09:20:02;7.20;;;3.50;;
53483;SDS011;75581;50.088;19.966;2024-02-23T09:22:32;4.60;;;3.00;;
53483;SDS011;75581;50.088;19.966;2024-02-23T09:25:01;6.90;;;3.50;;
53483;SDS011;75581;50.088;19.966;2024-02-23T09:27:30;5.50;;;3.40;;
53483;SDS011;75581;50.088;19.966;2024-02-23T09:29:59;4.70;;;3.40;;
53483;SDS011;75581;50.088;19.966;2024-02-23T09:32:28;6.10;;;3.50;;
53483;SDS011;75581;50.088;19.966;2024-02-23T09:34:57;7.00;;;3.50;;
53483;SDS011;75581;50.088;19.966;2024-02-23T09:37:27;5.90;;;3.30;;
53483;SDS011;75581;50.088;19.966;2024-02-23T09:39:56;5.20;;;2.80;;
53483;SDS011;75581;50.088;19.966;2024-02-23T09:42:25;4.90;;;3.00;;
53483;SDS011;75581;50.088;19.966;2024-02-23T09:44:59;5.20;;;3.00;;
53483;SDS011;75581;50.088;19.966;2024-02-23T09:47:29;3.80;;;2.90;;
53483;SDS011;75581;50.088;19.966;2024-02-23T09:50:00;5.10;;;2.80;;
53483;SDS011;75581;50.088;19.966;2024-02-23T09:52:33;5.00;;;2.90;;
53483;SDS011;75581;50.088;19.966;2024-02-23T09:55:02;5.30;;;3.60;;
53483;SDS011;75581;50.088;19.966;2024-02-23T09:57:32;8.60;;;3.90;;
53483;SDS011;75581;50.088;19.966;2024-02-23T10:00:02;5.30;;;2.90;;
53483;SDS011;75581;50.088;19.966;2024-02-23T10:02:39;3.80;;;2.70;;
53483;SDS011;75581;50.088;19.966;2024-02-23T10:05:10;4.80;;;2.90;;
53483;SDS011;75581;50.088;19.966;2024-02-23T10:07:41;3.60;;;2.50;;
53483;SDS011;75581;50.088;19.966;2024-02-23T10:10:11;6.40;;;2.80;;
53483;SDS011;75581;50.088;19.966;2024-02-23T10:12:40;4.10;;;2.70;;
53483;SDS011;75581;50.088;19.966;2024-02-23T10:15:09;5.40;;;3.20;;
53483;SDS011;75581;50.088;19.966;2024-02-23T10:17:39;4.70;;;2.20;;
53483;SDS011;75581;50.088;19.966;2024-02-23T10:20:09;4.80;;;2.50;;
53483;SDS011;75581;50.088;19.966;2024-02-23T10:22:39;5.50;;;3.20;;
53483;SDS011;75581;50.088;19.966;2024-02-23T10:25:08;6.00;;;2.40;;
53483;SDS011;75581;50.088;19.966;2024-02-23T10:27:37;3.10;;;2.20;;
53483;SDS011;75581;50.088;19.966;2024-02-23T10:30:06;3.80;;;2.60;;
53483;SDS011;75581;50.088;19.966;2024-02-23T10:32:38;4.10;;;2.50;;
53483;SDS011;75581;50.088;19.966;2024-02-23T10:35:18;4.60;;;2.70;;
53483;SDS011;75581;50.088;19.966;2024-02-23T10:37:50;3.40;;;2.30;;
53483;SDS011;75581;50.088;19.966;2024-02-23T10:40:21;2.70;;;1.80;;
53483;SDS011;75581;50.088;19.966;2024-02-23T10:42:55;3.80;;;2.30;;
53483;SDS011;75581;50.088;19.966;2024-02-23T10:45:28;3.50;;;2.20;;
53483;SDS011;75581;50.088;19.966;2024-02-23T10:47:57;3.70;;;2.20;;
53483;SDS011;75581;50.088;19.966;2024-02-23T10:50:28;3.90;;;2.30;;
53483;SDS011;75581;50.088;19.966;2024-02-23T10:52:57;4.50;;;2.30;;
53483;SDS011;75581;50.088;19.966;2024-02-23T10:55:29;4.00;;;2.10;;
53483;SDS011;75581;50.088;19.966;2024-02-23T10:58:01;3.70;;;2.20;;
53483;SDS011;75581;50.088;19.966;2024-02-23T11:00:31;3.10;;;2.20;;
53483;SDS011;75581;50.088;19.966;2024-02-23T11:03:00;3.40;;;2.40;;
53483;SDS011;75581;50.088;19.966;2024-02-23T11:05:32;3.90;;;2.40;;
53483;SDS011;75581;50.088;19.966;2024-02-23T11:08:02;3.30;;;2.30;;
53483;SDS011;75581;50.088;19.966;2024-02-23T11:10:42;3.20;;;2.30;;
53483;SDS011;75581;50.088;19.966;2024-02-23T11:13:11;3.80;;;2.30;;
53483;SDS011;75581;50.088;19.966;2024-02-23T11:15:42;3.50;;;2.30;;
53483;SDS011;75581;50.088;19.966;2024-02-23T11:18:21;3.10;;;2.40;;
53483;SDS011;75581;50.088;19.966;2024-02-23T11:20:56;3.90;;;2.40;;
53483;SDS011;75581;50.088;19.966;2024-02-23T11:26:31;3.60;;;2.20;;
53483;SDS011;75581;50.088;19.966;2024-02-23T11:29:10;2.90;;;2.10;;
53483;SDS011;75581;50.088;19.966;2024-02-23T11:31:44;4.10;;;2.20;;
53483;SDS011;75581;50.088;19.966;2024-02-23T11:34:14;4.00;;;2.40;;
53483;SDS011;75581;50.088;19.966;2024-02-23T11:39:21;3.70;;;1.90;;
53483;SDS011;75581;50.088;19.966;2024-02-23T11:41:51;3.00;;;1.70;;
53483;SDS011;75581;50.088;19.966;2024-02-23T11:44:20;4.00;;;2.00;;
53483;SDS011;75581;50.088;19.966;2024-02-23T11:46:49;2.30;;;1.60;;
53483;SDS011;75581;50.088;19.966;2024-02-23T11:49:18;3.30;;;2.10;;
53483;SDS011;75581;50.088;19.966;2024-02-23T11:51:47;3.20;;;1.70;;
53483;SDS011;75581;50.088;19.966;2024-02-23T11:54:16;3.00;;;1.70;;
53483;SDS011;75581;50.088;19.966;2024-02-23T11:56:46;2.60;;;2.00;;
53483;SDS011;75581;50.088;19.966;2024-02-23T11:59:15;3.90;;;2.30;;
53483;SDS011;75581;50.088;19.966;2024-02-23T12:01:45;3.70;;;2.10;;
53483;SDS011;75581;50.088;19.966;2024-02-23T12:04:15;2.70;;;2.00;;
53483;SDS011;75581;50.088;19.966;2024-02-23T12:06:44;2.60;;;1.50;;
53483;SDS011;75581;50.088;19.966;2024-02-23T12:09:14;3.70;;;2.10;;
53483;SDS011;75581;50.088;19.966;2024-02-23T12:11:43;2.40;;;1.50;;
53483;SDS011;75581;50.088;19.966;2024-02-23T12:14:13;2.90;;;1.70;;
53483;SDS011;75581;50.088;19.966;2024-02-23T12:16:42;3.90;;;2.20;;
53483;SDS011;75581;50.088;19.966;2024-02-23T12:19:11;2.70;;;1.70;;
53483;SDS011;75581;50.088;19.966;2024-02-23T12:21:40;3.90;;;1.70;;
53483;SDS011;75581;50.088;19.966;2024-02-23T12:24:13;3.40;;;2.20;;
53483;SDS011;75581;50.088;19.966;2024-02-23T12:26:42;3.40;;;1.60;;
53483;SDS011;75581;50.088;19.966;2024-02-23T12:29:11;3.30;;;2.00;;
53483;SDS011;75581;50.088;19.966;2024-02-23T12:31:40;2.90;;;2.20;;
53483;SDS011;75581;50.088;19.966;2024-02-23T12:34:11;3.00;;;1.90;;
53483;SDS011;75581;50.088;19.966;2024-02-23T12:36:45;2.50;;;1.80;;
53483;SDS011;75581;50.088;19.966;2024-02-23T12:39:14;3.10;;;1.80;;
53483;SDS011;75581;50.088;19.966;2024-02-23T12:41:43;3.00;;;2.20;;
53483;SDS011;75581;50.088;19.966;2024-02-23T12:44:12;3.10;;;2.20;;
53483;SDS011;75581;50.088;19.966;2024-02-23T12:46:41;3.50;;;2.00;;
53483;SDS011;75581;50.088;19.966;2024-02-23T12:49:10;3.50;;;2.70;;
53483;SDS011;75581;50.088;19.966;2024-02-23T12:51:39;3.10;;;2.10;;
53483;SDS011;75581;50.088;19.966;2024-02-23T12:54:08;4.00;;;1.80;;
53483;SDS011;75581;50.088;19.966;2024-02-23T12:56:37;2.50;;;2.00;;
53483;SDS011;75581;50.088;19.966;2024-02-23T12:59:06;3.50;;;2.10;;
53483;SDS011;75581;50.088;19.966;2024-02-23T13:01:37;4.00;;;2.00;;
53483;SDS011;75581;50.088;19.966;2024-02-23T13:04:12;5.10;;;2.20;;
53483;SDS011;75581;50.088;19.966;2024-02-23T13:06:42;3.00;;;1.90;;
53483;SDS011;75581;50.088;19.966;2024-02-23T13:09:11;6.90;;;2.10;;
53483;SDS011;75581;50.088;19.966;2024-02-23T13:11:43;3.30;;;1.80;;
53483;SDS011;75581;50.088;19.966;2024-02-23T13:14:12;3.00;;;2.20;;
53483;SDS011;75581;50.088;19.966;2024-02-23T13:16:41;5.10;;;2.00;;
53483;SDS011;75581;50.088;19.966;2024-02-23T13:19:10;3.60;;;1.90;;
53483;SDS011;75581;50.088;19.966;2024-02-23T13:21:39;4.60;;;2.30;;
53483;SDS011;75581;50.088;19.966;2024-02-23T13:24:09;4.00;;;1.90;;
53483;SDS011;75581;50.088;19.966;2024-02-23T13:26:38;3.90;;;1.90;;
53483;SDS011;75581;50.088;19.966;2024-02-23T13:29:07;3.80;;;1.90;;
53483;SDS011;75581;50.088;19.966;2024-02-23T13:31:37;4.10;;;2.00;;
53483;SDS011;75581;50.088;19.966;2024-02-23T13:34:08;3.60;;;2.30;;
53483;SDS011;75581;50.088;19.966;2024-02-23T13:36:38;4.80;;;2.00;;
53483;SDS011;75581;50.088;19.966;2024-02-23T13:39:07;2.50;;;1.70;;
53483;SDS011;75581;50.088;19.966;2024-02-23T13:41:37;2.90;;;2.00;;
53483;SDS011;75581;50.088;19.966;2024-02-23T13:44:07;2.60;;;1.80;;
53483;SDS011;75581;50.088;19.966;2024-02-23T13:46:37;5.30;;;2.00;;
53483;SDS011;75581;50.088;19.966;2024-02-23T13:49:07;4.10;;;2.00;;
53483;SDS011;75581;50.088;19.966;2024-02-23T13:51:38;4.00;;;2.10;;
53483;SDS011;75581;50.088;19.966;2024-02-23T13:54:07;4.00;;;2.10;;
53483;SDS011;75581;50.088;19.966;2024-02-23T13:56:36;3.30;;;2.20;;
53483;SDS011;75581;50.088;19.966;2024-02-23T13:59:05;3.90;;;2.00;;
53483;SDS011;75581;50.088;19.966;2024-02-23T14:01:34;3.60;;;2.00;;
53483;SDS011;75581;50.088;19.966;2024-02-23T14:04:07;4.40;;;2.20;;
53483;SDS011;75581;50.088;19.966;2024-02-23T14:06:36;3.10;;;1.70;;
53483;SDS011;75581;50.088;19.966;2024-02-23T14:09:06;4.20;;;2.20;;
53483;SDS011;75581;50.088;19.966;2024-02-23T14:11:35;4.00;;;2.40;;
53483;SDS011;75581;50.088;19.966;2024-02-23T14:14:04;6.00;;;2.60;;
53483;SDS011;75581;50.088;19.966;2024-02-23T14:16:34;5.90;;;2.50;;
53483;SDS011;75581;50.088;19.966;2024-02-23T14:19:03;5.70;;;2.20;;
53483;SDS011;75581;50.088;19.966;2024-02-23T14:21:33;4.60;;;2.40;;
53483;SDS011;75581;50.088;19.966;2024-02-23T14:24:04;3.90;;;2.40;;
53483;SDS011;75581;50.088;19.966;2024-02-23T14:26:33;3.50;;;2.30;;
53483;SDS011;75581;50.088;19.966;2024-02-23T14:29:03;6.00;;;2.40;;
53483;SDS011;75581;50.088;19.966;2024-02-23T14:31:32;5.50;;;3.00;;
53483;SDS011;75581;50.088;19.966;2024-02-23T14:34:00;5.30;;;2.80;;
53483;SDS011;75581;50.088;19.966;2024-02-23T14:36:30;3.70;;;2.20;;
53483;SDS011;75581;50.088;19.966;2024-02-23T14:39:02;3.10;;;2.10;;
53483;SDS011;75581;50.088;19.966;2024-02-23T14:41:33;3.10;;;2.00;;
53483;SDS011;75581;50.088;19.966;2024-02-23T14:44:02;3.30;;;2.10;;
53483;SDS011;75581;50.088;19.966;2024-02-23T14:46:31;3.90;;;2.60;;
53483;SDS011;75581;50.088;19.966;2024-02-23T14:49:00;4.70;;;2.50;;
53483;SDS011;75581;50.088;19.966;2024-02-23T14:51:29;4.00;;;2.80;;
53483;SDS011;75581;50.088;19.966;2024-02-23T14:53:58;4.20;;;2.80;;